createdAt,value
2022-11-22T00:01:36.432Z,14.33
2022-11-22T00:04:05.480Z,14.07
2022-11-22T00:06:34.327Z,13.97
2022-11-22T00:09:03.376Z,14.07
2022-11-22T00:11:33.764Z,13.97
2022-11-22T00:14:02.598Z,13.67
2022-11-22T00:16:31.404Z,12.87
2022-11-22T00:19:00.228Z,13.10
2022-11-22T00:21:29.054Z,13.03
2022-11-22T00:23:58.482Z,13.57
2022-11-22T00:26:27.420Z,13.00
2022-11-22T00:28:57.793Z,12.93
2022-11-22T00:31:26.659Z,13.40
2022-11-22T00:33:55.552Z,13.63
2022-11-22T00:36:24.408Z,13.00
2022-11-22T00:38:53.874Z,12.97
2022-11-22T00:41:22.662Z,13.43
2022-11-22T00:43:51.460Z,12.33
2022-11-22T00:46:21.768Z,11.70
2022-11-22T00:48:50.548Z,12.00
2022-11-22T00:51:19.505Z,12.07
2022-11-22T00:53:48.477Z,11.00
2022-11-22T00:56:17.280Z,11.07
2022-11-22T00:58:46.132Z,10.93
2022-11-22T01:01:14.995Z,10.77
2022-11-22T01:03:45.317Z,10.53
2022-11-22T01:06:15.305Z,11.43
2022-11-22T01:08:44.215Z,10.90
2022-11-22T01:11:19.306Z,11.07
2022-11-22T01:13:48.402Z,10.97
2022-11-22T01:16:17.796Z,10.60
2022-11-22T01:18:48.135Z,9.80
2022-11-22T01:21:16.946Z,9.77
2022-11-22T01:23:45.655Z,9.57
2022-11-22T01:26:14.652Z,9.03
2022-11-22T01:28:43.443Z,8.90
2022-11-22T01:31:12.292Z,9.50
2022-11-22T01:33:41.116Z,9.60
2022-11-22T01:36:12.636Z,9.43
2022-11-22T01:38:41.561Z,9.90
2022-11-22T01:41:13.647Z,9.30
2022-11-22T01:43:42.528Z,9.93
2022-11-22T01:46:17.297Z,8.70
2022-11-22T01:48:57.566Z,8.37
2022-11-22T01:51:31.872Z,8.97
2022-11-22T01:54:05.605Z,9.23
2022-11-22T01:56:35.922Z,8.80
2022-11-22T01:59:09.634Z,9.90
2022-11-22T02:01:39.097Z,9.13
2022-11-22T02:04:10.983Z,8.60
2022-11-22T02:06:48.279Z,8.37
2022-11-22T02:09:18.184Z,8.20
2022-11-22T02:11:51.718Z,6.90
2022-11-22T02:14:25.480Z,7.07
2022-11-22T02:16:54.512Z,6.70
2022-11-22T02:19:32.832Z,7.10
2022-11-22T02:22:08.028Z,6.60
2022-11-22T02:24:43.607Z,6.43
2022-11-22T02:27:13.866Z,5.90
2022-11-22T02:29:43.517Z,6.77
2022-11-22T02:32:12.321Z,6.50
2022-11-22T02:34:46.272Z,6.53
2022-11-22T02:37:19.042Z,5.93
2022-11-22T02:39:49.652Z,6.27
2022-11-22T02:42:20.296Z,5.50
2022-11-22T02:44:49.086Z,6.47
2022-11-22T02:47:17.930Z,5.80
2022-11-22T02:49:46.732Z,5.30
2022-11-22T02:52:18.776Z,4.47
2022-11-22T02:54:48.002Z,4.77
2022-11-22T02:57:21.165Z,4.20
2022-11-22T02:59:50.001Z,4.40
2022-11-22T03:02:18.774Z,5.10
2022-11-22T03:04:47.919Z,4.90
2022-11-22T03:07:17.510Z,4.50
2022-11-22T03:09:46.357Z,4.80
2022-11-22T03:12:15.170Z,4.73
2022-11-22T03:14:45.402Z,5.00
2022-11-22T03:17:16.404Z,5.77
2022-11-22T03:19:45.238Z,5.37
2022-11-22T03:22:14.533Z,5.33
2022-11-22T03:24:43.561Z,5.17
2022-11-22T03:27:12.440Z,5.37
2022-11-22T03:29:41.467Z,5.17
2022-11-22T03:32:11.750Z,4.90
2022-11-22T03:34:40.744Z,5.10
2022-11-22T03:37:09.568Z,4.93
2022-11-22T03:39:38.486Z,5.17
2022-11-22T03:42:07.668Z,5.40
2022-11-22T03:44:36.448Z,5.30
2022-11-22T03:47:05.393Z,5.30
2022-11-22T03:49:35.680Z,5.77
2022-11-22T03:52:04.799Z,5.90
2022-11-22T03:54:33.687Z,5.97
2022-11-22T03:57:02.461Z,5.60
2022-11-22T03:59:31.503Z,5.63
2022-11-22T04:02:00.495Z,5.87
2022-11-22T04:04:29.374Z,6.03
2022-11-22T04:06:59.645Z,6.43
2022-11-22T04:09:28.865Z,6.30
2022-11-22T04:11:57.959Z,6.37
2022-11-22T04:14:44.116Z,6.57
2022-11-22T04:17:14.813Z,6.50
2022-11-22T04:20:04.062Z,7.23
2022-11-22T04:22:33.199Z,7.10
2022-11-22T04:25:17.304Z,7.90
2022-11-22T04:27:46.188Z,7.07
2022-11-22T04:30:20.216Z,7.60
2022-11-22T04:32:48.599Z,7.43
2022-11-22T04:35:20.003Z,7.60
2022-11-22T04:37:53.560Z,7.37
2022-11-22T04:40:22.384Z,7.73
2022-11-22T04:43:08.468Z,8.00
2022-11-22T04:45:37.438Z,8.70
2022-11-22T04:48:06.746Z,8.80
2022-11-22T04:50:52.959Z,7.87
2022-11-22T04:53:23.259Z,7.33
2022-11-22T04:55:52.238Z,7.43
2022-11-22T04:58:21.686Z,7.40
2022-11-22T05:00:50.999Z,7.27
2022-11-22T05:03:20.127Z,7.17
2022-11-22T05:05:48.980Z,6.20
2022-11-22T05:08:18.089Z,7.07
2022-11-22T05:10:58.542Z,6.23
2022-11-22T05:13:32.058Z,6.23
2022-11-22T05:16:01.975Z,6.17
2022-11-22T05:18:31.010Z,6.20
2022-11-22T05:21:00.941Z,6.37
2022-11-22T05:23:55.685Z,5.40
2022-11-22T05:26:28.301Z,5.00
2022-11-22T05:29:00.330Z,5.07
2022-11-22T05:31:29.290Z,4.90
2022-11-22T05:33:59.347Z,4.90
2022-11-22T05:36:28.230Z,4.70
2022-11-22T05:38:57.026Z,4.90
2022-11-22T05:41:30.161Z,4.50
2022-11-22T05:43:59.369Z,4.50
2022-11-22T05:46:29.473Z,4.90
2022-11-22T05:48:59.654Z,4.00
2022-11-22T05:51:34.694Z,4.23
2022-11-22T05:54:04.021Z,3.50
2022-11-22T05:56:34.353Z,4.00
2022-11-22T05:59:03.183Z,3.57
2022-11-22T06:01:32.002Z,3.43
2022-11-22T06:04:00.849Z,3.10
2022-11-22T06:06:29.732Z,2.90
2022-11-22T06:09:00.168Z,3.13
2022-11-22T06:11:29.849Z,3.07
2022-11-22T06:14:03.438Z,2.97
2022-11-22T06:16:32.777Z,2.93
2022-11-22T06:19:01.747Z,2.67
2022-11-22T06:21:30.682Z,2.90
2022-11-22T06:23:59.874Z,2.40
2022-11-22T06:26:29.011Z,2.57
2022-11-22T06:28:59.425Z,2.53
2022-11-22T06:31:30.294Z,2.40
2022-11-22T06:34:00.616Z,2.37
2022-11-22T06:36:32.447Z,2.20
2022-11-22T06:39:02.236Z,2.37
2022-11-22T06:41:36.015Z,2.40
2022-11-22T06:44:09.174Z,2.20
2022-11-22T06:46:39.131Z,2.47
2022-11-22T06:49:08.300Z,2.57
2022-11-22T06:51:37.476Z,2.90
2022-11-22T06:54:06.667Z,3.07
2022-11-22T06:56:41.271Z,2.70
2022-11-22T06:59:12.475Z,2.37
2022-11-22T07:01:41.970Z,2.80
2022-11-22T07:04:11.840Z,3.03
2022-11-22T07:06:41.115Z,3.50
2022-11-22T07:09:12.998Z,4.63
2022-11-22T07:11:43.151Z,5.97
2022-11-22T07:14:14.318Z,3.17
2022-11-22T07:16:43.441Z,2.73
2022-11-22T07:19:12.449Z,3.20
2022-11-22T07:21:42.296Z,4.10
2022-11-22T07:24:11.915Z,5.83
2022-11-22T07:26:41.105Z,4.10
2022-11-22T07:29:10.172Z,3.40
2022-11-22T07:31:40.518Z,4.13
2022-11-22T07:34:11.479Z,3.60
2022-11-22T07:36:40.248Z,4.07
2022-11-22T07:39:09.230Z,3.90
2022-11-22T07:41:38.056Z,4.00
2022-11-22T07:44:07.068Z,3.83
2022-11-22T07:46:35.884Z,3.20
2022-11-22T07:49:06.143Z,3.60
2022-11-22T07:51:35.072Z,3.47
2022-11-22T07:54:04.070Z,2.93
2022-11-22T07:56:35.253Z,3.80
2022-11-22T07:59:04.312Z,3.53
2022-11-22T08:01:33.190Z,3.70
2022-11-22T08:04:02.194Z,3.70
2022-11-22T08:06:32.469Z,3.80
2022-11-22T08:09:02.398Z,3.43
2022-11-22T08:11:31.584Z,3.50
2022-11-22T08:14:00.462Z,2.90
2022-11-22T08:16:29.457Z,3.77
2022-11-22T08:18:58.478Z,3.40
2022-11-22T08:21:27.277Z,3.23
2022-11-22T08:23:59.345Z,3.13
2022-11-22T08:26:28.404Z,3.23
2022-11-22T08:28:57.275Z,3.20
2022-11-22T08:31:28.714Z,2.70
2022-11-22T08:33:57.805Z,3.30
2022-11-22T08:36:26.705Z,3.33
2022-11-22T08:38:57.547Z,3.00
2022-11-22T08:41:27.293Z,3.07
2022-11-22T08:43:56.342Z,3.30
2022-11-22T08:46:25.234Z,3.23
2022-11-22T08:48:54.641Z,3.40
2022-11-22T08:51:23.616Z,3.27
2022-11-22T08:53:52.416Z,3.00
2022-11-22T08:56:22.679Z,3.43
2022-11-22T08:58:51.604Z,3.00
2022-11-22T09:01:21.502Z,3.03
2022-11-22T09:03:53.632Z,3.20
2022-11-22T09:12:02.188Z,3.10
2022-11-22T09:14:31.108Z,3.13
2022-11-22T09:17:00.048Z,3.20
2022-11-22T09:19:29.159Z,3.20
2022-11-22T09:21:58.338Z,4.23
2022-11-22T09:24:27.247Z,6.13
2022-11-22T09:26:56.188Z,3.50
2022-11-22T09:29:26.759Z,3.20
2022-11-22T09:31:57.426Z,2.80
2022-11-22T09:34:26.328Z,3.20
2022-11-22T09:36:55.279Z,2.70
2022-11-22T09:39:24.608Z,3.20
2022-11-22T09:42:34.869Z,2.70
2022-11-22T09:45:26.828Z,2.77
2022-11-22T09:48:09.858Z,2.67
2022-11-22T09:50:50.267Z,2.50
2022-11-22T09:53:26.194Z,7.40
2022-11-22T09:55:59.223Z,4.07
2022-11-22T09:58:33.733Z,3.13
2022-11-22T10:01:13.041Z,2.70
2022-11-22T10:03:49.774Z,2.40
2022-11-22T10:06:25.241Z,2.57
2022-11-22T10:09:05.975Z,2.57
2022-11-22T10:11:42.417Z,2.40
2022-11-22T10:14:28.666Z,2.37
2022-11-22T10:17:12.495Z,2.00
2022-11-22T10:19:54.277Z,2.30
2022-11-22T10:22:32.441Z,2.07
2022-11-22T10:25:05.076Z,1.97
2022-11-22T10:27:36.940Z,2.07
2022-11-22T10:30:15.064Z,1.87
2022-11-22T10:33:05.978Z,2.17
2022-11-22T10:35:50.635Z,1.90
